Lincolnwood, Illinois
Current Conditions -  °F | °C
As of 4:51 AM on Sunday 23 Nov 2014 (Local Time) from KORD Reporting Station
Broken Clouds Broken Clouds  
Wind Chill: 44°   Ceiling: 3400
Heat Index: 49°   Visibility: 10mi
Dew Point: 43°   Wind: 13mph
Humidity: 80%   Direction: 190°S
Pressure: 29.76"   Gusts: NA
Location:  42.01°N, 87.73°W
Report Text: KORD 231051Z 19011KT 10SM SCT025 BKN034 BKN065 09/06 A2976 RMK AO2 SLP077 T00940061
Loading
Personal Weather Stations






























Interactive Weather Map New forecast layout! Learn more

10-Day Weather Forecast

Advertisements
Track Severe Weather on mobile